Barrow, AK

17:23 AKDT le 01 avril 2015 (GMT -0800)
Wiley Post-Will Rogers Memorial | | Change Station
CLOSE
Current Station
Aéroport
Location: Barrow,
Altitude: 43 ft
Stations météo à proximité

Alt. 43 ft 71.28 °N, 156.79 °W | Updated 30 minutes ago

Clear
Ciel dégagé
0 ° F
Paraît -22 ° F
N
20
Vent Variable Vent de ENE

Aujourd'hui
Haut(e) -- | Bas -- ° F
--% Risque de précip.
Hier
Haut(e) -- | Bas -- ° F
Precip. -- pouce
7:25 AM 9:39 PM
Lune gibbeuse croissante, 95% visible
Pression 30.23 pouce
Visibilité 10.0 Miles terrestres
Nuages Ciel dégagé
Refroidissement éolien -22 ° F
Point de rosée -6 ° F
Humidité 76%
Précipitations 0.00 pouce
Profondeur de la couche neigeuse Non disponible.
UV 1 sur 12
Pollen Non disponible.
Qualité de l'air Non disponible.
Flu Activity Non disponible.
METAR PABR 020053Z 06017KT 10SM CLR M18/M21 A3022 RMK AO2 SLP237 T11781211

More Conditions Fewer Conditions

Pression 30.23 pouce
Visibilité 10.0 Miles terrestres
Nuages Ciel dégagé
Refroidissement éolien -22 ° F
Point de rosée -6 ° F
Humidité 76%
Précipitations 0.00 pouce
Profondeur de la couche neigeuse Non disponible.
UV 1 sur 12
Pollen Non disponible.
Qualité de l'air Non disponible.
Flu Activity Non disponible.
METAR PABR 020053Z 06017KT 10SM CLR M18/M21 A3022 RMK AO2 SLP237 T11781211

More Conditions Fewer Conditions

10-Day Weather Forecast

Almanac

Astronomie

Apr. 01, 2015 Lever Coucher
Temps réel
Crépuscule civil
Crépuscule nautique
Crépuscule astronomique
Lune
Durée de lumière visible
Longueur du jour
Tomorrow will be .
, % of the Moon is Illuminated

Extrêmes aujourd'hui

State Highs State Lows

Community

WunderPhotos

Upload Photos

1,810,142 Photos téléchargées !

WunderBlogs® & News

Nearby

Qualité de l'air

  Qualité de l'air Indice de la qualité de l'air Polluant
Not available.

Épaisseur de neige

Station Depth Altitude

Activité sismique

Ville Distance Mag. Time & Date
Minimum magnitude displayed is 2.5.

Températures des eaux côtières

Lieu Température

Stations

Stations météo à proximité

Emplacement de la station Température Refroidissement éolien Point de rosée Humidité Vent Precip. Alt. Mise à jour Type